Time;durP1;ratioP1;P1;durP2;ratioP2;P2;SDS_P1;SDS_P2;PMS_P1;PMS_P2;Temp;Humidity;BMP_temperature;BMP_pressure;BME280_temperature;BME280_humidity;BME280_pressure;Samples;Min_cycle;Max_cycle;Signal;HPM_P1;HPM_P2
2021/12/02 00:03:38;;;;;;;7.72;4.78;;;;;;;2.76;86.60;94862.59;10279440;28;100668;-62
2021/12/02 00:08:43;;;;;;;6.80;4.72;;;;;;;2.61;86.60;94852.66;10283026;28;99215;-62
2021/12/02 00:13:53;;;;;;;7.23;3.27;;;;;;;2.67;86.79;94854.72;10281654;28;97970;-62
2021/12/02 00:24:22;;;;;;;4.72;2.35;;;;;;;2.86;85.93;94851.34;10286810;28;98545;-62
2021/12/02 00:29:25;;;;;;;4.50;2.80;;;;;;;2.87;85.99;94840.09;10289125;28;98764;-62
2021/12/02 00:34:30;;;;;;;7.20;3.70;;;;;;;2.90;85.00;94840.75;10282182;28;98051;-62
2021/12/02 00:39:35;;;;;;;8.10;4.50;;;;;;;2.93;85.18;94835.31;10282029;28;98296;-62
2021/12/02 00:44:39;;;;;;;19.95;9.98;;;;;;;2.82;85.51;94844.00;10283564;28;97243;-62
2021/12/02 00:49:44;;;;;;;7.07;3.97;;;;;;;2.72;85.93;94849.16;10291951;28;98718;-63
2021/12/02 00:54:48;;;;;;;7.63;3.63;;;;;;;2.79;85.73;94839.09;10287726;28;98842;-62
2021/12/02 00:59:53;;;;;;;6.25;3.33;;;;;;;2.67;85.22;94841.00;10284017;28;98763;-63
2021/12/02 01:04:57;;;;;;;7.30;3.00;;;;;;;2.69;85.88;94845.06;10281537;28;98706;-62
2021/12/02 01:10:01;;;;;;;5.80;3.70;;;;;;;2.72;84.98;94846.56;10286034;28;96859;-62
2021/12/02 01:15:06;;;;;;;5.30;3.15;;;;;;;2.71;85.52;94846.72;10280080;28;97993;-62
2021/12/02 01:20:10;;;;;;;6.97;3.53;;;;;;;2.67;85.28;94851.31;10281293;28;100845;-62
2021/12/02 01:25:18;;;;;;;4.63;3.10;;;;;;;2.69;85.01;94863.13;10281449;28;96789;-62
2021/12/02 01:30:22;;;;;;;6.15;3.50;;;;;;;2.72;85.51;94858.63;10280322;28;97875;-62
2021/12/02 01:35:26;;;;;;;7.25;3.67;;;;;;;2.77;85.38;94856.47;10280106;28;98672;-62
2021/12/02 01:40:30;;;;;;;6.10;4.10;;;;;;;2.79;84.57;94859.72;10282462;28;98447;-63
2021/12/02 01:45:33;;;;;;;5.57;3.92;;;;;;;2.78;85.65;94850.38;10280589;28;96924;-62
2021/12/02 01:50:40;;;;;;;6.70;3.38;;;;;;;2.75;84.90;94833.41;10283880;28;97677;-62
2021/12/02 01:55:54;;;;;;;5.80;3.90;;;;;;;2.81;84.74;94834.66;10278499;28;98908;-62
2021/12/02 02:01:01;;;;;;;8.50;4.25;;;;;;;2.74;84.71;94829.19;10276235;28;96973;-62
2021/12/02 02:06:05;;;;;;;8.35;5.15;;;;;;;2.60;85.26;94827.84;10277387;28;97751;-62
2021/12/02 02:11:10;;;;;;;9.40;6.65;;;;;;;2.50;85.39;94812.34;10285406;28;98431;-62
2021/12/02 02:16:13;;;;;;;12.38;6.18;;;;;;;2.37;85.59;94806.63;10288630;28;97432;-62
2021/12/02 02:21:21;;;;;;;10.02;6.93;;;;;;;2.24;85.56;94809.44;10286014;28;96901;-62
2021/12/02 02:26:26;;;;;;;12.27;7.55;;;;;;;2.16;86.29;94795.59;10288670;28;96874;-62
2021/12/02 02:31:31;;;;;;;13.88;7.72;;;;;;;2.18;85.41;94793.69;10277747;28;96977;-63
2021/12/02 02:36:40;;;;;;;12.70;7.35;;;;;;;2.13;85.89;94794.91;10275534;28;98607;-62
2021/12/02 02:41:45;;;;;;;13.48;8.55;;;;;;;2.15;85.62;94781.06;10279611;28;97764;-62
2021/12/02 02:46:48;;;;;;;11.77;8.45;;;;;;;2.10;86.03;94778.91;10278481;28;98090;-62
2021/12/02 02:51:53;;;;;;;16.70;9.98;;;;;;;1.98;86.01;94778.19;10277732;28;98973;-62
2021/12/02 02:57:01;;;;;;;13.63;10.00;;;;;;;2.00;85.98;94783.22;10277159;28;97122;-62
2021/12/02 03:02:09;;;;;;;17.23;10.20;;;;;;;2.02;85.75;94783.88;10277620;28;98959;-62
2021/12/02 03:07:22;;;;;;;14.02;10.02;;;;;;;2.07;85.71;94776.59;10284072;28;98745;-62
2021/12/02 03:12:29;;;;;;;12.73;9.73;;;;;;;2.07;85.68;94782.53;10280330;28;98689;-62
2021/12/02 03:17:33;;;;;;;16.35;10.35;;;;;;;2.03;85.49;94786.34;10281050;28;97027;-62
2021/12/02 03:22:37;;;;;;;15.35;9.93;;;;;;;2.03;85.17;94795.84;10276037;28;96939;-62
2021/12/02 03:27:40;;;;;;;17.53;9.77;;;;;;;1.98;86.17;94788.50;10277537;28;98485;-62
2021/12/02 03:32:43;;;;;;;13.70;8.60;;;;;;;2.01;85.94;94787.41;10278863;28;100381;-62
2021/12/02 03:37:47;;;;;;;11.57;7.97;;;;;;;1.98;86.21;94783.34;10277774;28;97476;-62
2021/12/02 03:42:53;;;;;;;11.68;8.35;;;;;;;2.09;86.43;94775.53;10275809;28;99859;-62
2021/12/02 03:48:11;;;;;;;14.48;8.80;;;;;;;2.06;86.08;94780.09;10280326;28;98710;-62
2021/12/02 03:53:16;;;;;;;13.05;7.65;;;;;;;2.07;85.54;94782.53;10278032;28;96807;-62
2021/12/02 03:58:19;;;;;;;12.70;8.07;;;;;;;2.11;85.96;94767.63;10283654;28;98078;-62
2021/12/02 04:03:22;;;;;;;11.30;7.05;;;;;;;2.18;85.83;94766.19;10285866;28;98641;-63
2021/12/02 04:08:31;;;;;;;10.40;7.17;;;;;;;2.23;85.49;94771.75;10288175;28;97205;-62
2021/12/02 04:13:35;;;;;;;12.88;7.63;;;;;;;2.25;85.89;94775.00;10283689;28;97675;-62
2021/12/02 04:18:38;;;;;;;13.52;8.05;;;;;;;2.26;85.08;94765.50;10284778;28;98190;-62
2021/12/02 04:23:42;;;;;;;10.43;7.10;;;;;;;2.22;85.61;94770.13;10279727;28;96881;-62
2021/12/02 04:28:45;;;;;;;11.48;7.28;;;;;;;2.27;85.42;94767.97;10287764;28;96837;-62
2021/12/02 04:33:48;;;;;;;11.15;6.90;;;;;;;2.24;85.82;94752.75;10283054;28;98752;-63
2021/12/02 04:38:52;;;;;;;12.05;7.18;;;;;;;2.23;85.40;94761.44;10281710;28;98886;-62
2021/12/02 04:43:55;;;;;;;13.02;7.07;;;;;;;2.11;86.24;94762.47;10280684;28;98556;-62
2021/12/02 04:48:57;;;;;;;11.70;6.82;;;;;;;1.94;86.51;94757.03;10280803;28;97740;-62
2021/12/02 04:54:02;;;;;;;12.80;6.80;;;;;;;2.03;86.10;94763.16;10282349;28;98648;-62
2021/12/02 04:59:05;;;;;;;10.85;7.18;;;;;;;2.03;85.73;94759.78;10281828;28;96941;-62
2021/12/02 05:04:08;;;;;;;12.52;7.35;;;;;;;2.04;85.62;94757.06;10278488;28;97630;-62
2021/12/02 05:09:13;;;;;;;9.88;6.78;;;;;;;2.11;86.05;94762.47;10281193;28;98483;-62
2021/12/02 05:14:16;;;;;;;13.20;8.30;;;;;;;2.10;85.99;94766.81;10284386;28;96779;-62
2021/12/02 05:19:18;;;;;;;11.13;7.60;;;;;;;2.01;85.58;94777.94;10281159;28;99029;-63
2021/12/02 05:24:23;;;;;;;10.38;7.45;;;;;;;2.05;85.63;94773.31;10278066;28;98848;-62
2021/12/02 05:29:25;;;;;;;12.18;7.90;;;;;;;2.14;85.99;94775.09;10279910;28;99972;-62
2021/12/02 05:34:28;;;;;;;14.55;8.30;;;;;;;1.79;86.73;94784.09;10277645;28;98526;-62
2021/12/02 05:39:33;;;;;;;11.25;6.80;;;;;;;1.90;86.36;94773.69;10282916;28;99256;-62
2021/12/02 05:44:36;;;;;;;15.38;7.65;;;;;;;1.98;86.76;94772.22;10279964;28;97991;-62
2021/12/02 05:49:38;;;;;;;13.13;7.57;;;;;;;1.93;86.25;94775.19;10281677;28;98198;-63
2021/12/02 05:54:43;;;;;;;10.98;7.40;;;;;;;1.94;86.03;94777.63;10278954;28;96995;-62
2021/12/02 05:59:46;;;;;;;12.60;7.88;;;;;;;1.93;85.86;94770.84;10276529;28;97725;-62
2021/12/02 06:04:51;;;;;;;13.15;8.00;;;;;;;1.94;85.87;94772.50;10281761;28;97598;-62
2021/12/02 06:09:55;;;;;;;12.47;7.87;;;;;;;1.84;86.33;94768.25;10278565;28;98888;-62
2021/12/02 06:14:58;;;;;;;15.98;8.77;;;;;;;1.96;86.32;94766.41;10280868;28;98714;-62
2021/12/02 06:20:01;;;;;;;19.73;9.70;;;;;;;1.85;86.01;94768.13;10277338;28;98506;-62
2021/12/02 06:25:43;;;;;;;17.80;9.60;;;;;;;1.90;86.66;94776.28;10281507;28;97878;-62
2021/12/02 06:30:40;;;;;;;15.82;9.30;;;;;;;1.97;86.50;94775.75;10283575;28;98494;-62
2021/12/02 06:35:43;;;;;;;13.63;8.48;;;;;;;1.87;86.94;94776.53;10281044;28;97158;-62
2021/12/02 06:40:47;;;;;;;12.35;7.82;;;;;;;1.70;87.35;94790.03;10279441;28;96872;-62
2021/12/02 06:45:50;;;;;;;11.23;7.15;;;;;;;1.76;86.87;94789.50;10279342;28;97046;-62
2021/12/02 06:50:53;;;;;;;14.10;8.55;;;;;;;1.89;86.66;94774.63;10275846;28;99464;-62
2021/12/02 06:55:57;;;;;;;14.23;8.30;;;;;;;1.99;87.05;94766.13;10276593;28;97473;-62
2021/12/02 07:01:00;;;;;;;16.15;8.20;;;;;;;1.82;87.41;94777.88;10286278;28;98694;-62
2021/12/02 07:06:03;;;;;;;14.65;8.20;;;;;;;1.66;87.22;94779.16;10282767;28;97936;-62
2021/12/02 07:11:09;;;;;;;13.65;7.70;;;;;;;1.74;86.87;94786.22;10273684;28;98651;-62
2021/12/02 07:16:12;;;;;;;12.95;7.95;;;;;;;1.75;87.16;94800.75;10279667;28;98772;-62
2021/12/02 07:21:15;;;;;;;12.90;8.52;;;;;;;1.84;87.25;94799.97;10278110;28;98523;-62
2021/12/02 07:26:19;;;;;;;12.13;7.57;;;;;;;1.93;87.19;94799.16;10285574;28;99976;-62
2021/12/02 07:31:24;;;;;;;15.35;8.02;;;;;;;2.03;87.24;94801.00;10283002;28;96998;-62
2021/12/02 07:36:31;;;;;;;14.63;8.60;;;;;;;2.19;86.75;94790.19;10284937;28;98621;-62
2021/12/02 07:41:36;;;;;;;11.30;7.13;;;;;;;2.35;86.72;94792.25;10293404;28;96955;-62
2021/12/02 07:46:39;;;;;;;13.43;7.55;;;;;;;2.55;86.53;94806.78;10289203;28;96956;-62
2021/12/02 07:51:44;;;;;;;14.20;8.57;;;;;;;2.71;86.74;94811.41;10284637;28;96820;-62
2021/12/02 07:56:48;;;;;;;;;;;;;;;2.68;86.36;94822.00;10286217;28;99513;-62
2021/12/02 08:01:55;;;;;;;15.55;9.82;;;;;;;2.69;87.02;94814.13;10290747;28;97047;-62
2021/12/02 08:06:58;;;;;;;14.27;6.85;;;;;;;2.82;86.88;94813.03;10293096;28;97068;-62
2021/12/02 08:12:03;;;;;;;9.27;6.05;;;;;;;2.82;86.80;94813.03;10293725;28;96840;-62
2021/12/02 08:17:06;;;;;;;7.75;5.82;;;;;;;2.88;86.55;94804.78;10276565;28;100492;-62
2021/12/02 08:22:09;;;;;;;11.25;6.32;;;;;;;2.94;86.40;94801.63;10277704;28;96910;-62
2021/12/02 08:27:14;;;;;;;10.95;6.00;;;;;;;2.99;86.03;94803.81;10293236;28;96888;-62
2021/12/02 08:32:22;;;;;;;9.07;5.72;;;;;;;3.02;85.85;94804.34;10292519;28;96891;-62
2021/12/02 08:37:26;;;;;;;9.15;5.47;;;;;;;3.04;86.51;94799.88;10293363;28;98752;-62
2021/12/02 08:42:32;;;;;;;12.07;6.38;;;;;;;3.03;86.34;94808.56;10297747;28;96875;-62
2021/12/02 08:47:43;;;;;;;9.23;6.10;;;;;;;3.18;85.99;94813.31;10301532;28;96804;-62
2021/12/02 08:52:47;;;;;;;9.05;6.13;;;;;;;3.24;86.65;94817.94;10297944;28;96920;-63
2021/12/02 08:57:53;;;;;;;8.97;6.13;;;;;;;3.24;86.12;94817.94;10298735;28;99619;-63
2021/12/02 09:02:56;;;;;;;8.95;5.15;;;;;;;3.27;86.61;94827.97;10300545;28;96737;-62
2021/12/02 09:07:59;;;;;;;9.50;5.60;;;;;;;3.34;86.42;94816.13;10300415;28;96894;-63
2021/12/02 09:13:07;;;;;;;9.23;6.13;;;;;;;3.50;86.62;94812.16;10280277;28;97767;-62
2021/12/02 09:18:10;;;;;;;11.77;6.07;;;;;;;3.57;86.22;94824.38;10292296;28;99716;-62
2021/12/02 09:23:14;;;;;;;10.93;5.28;;;;;;;3.79;86.23;94830.97;10298672;28;97204;-62
2021/12/02 09:28:18;;;;;;;9.77;6.15;;;;;;;3.68;85.33;94846.66;10295284;28;97060;-62
2021/12/02 09:33:22;;;;;;;12.43;6.07;;;;;;;3.57;85.77;94831.31;10299664;28;96747;-62
2021/12/02 09:38:25;;;;;;;11.18;5.07;;;;;;;3.72;85.75;94816.19;10299214;28;97371;-62
2021/12/02 09:43:29;;;;;;;7.35;4.70;;;;;;;3.80;85.33;94824.06;10292871;28;96839;-62
2021/12/02 09:48:34;;;;;;;10.18;5.10;;;;;;;3.85;85.40;94826.19;10290884;28;97107;-62
2021/12/02 09:53:50;;;;;;;8.18;4.35;;;;;;;3.93;85.48;94828.91;10298511;28;96702;-63
2021/12/02 09:58:58;;;;;;;7.90;4.72;;;;;;;3.98;85.48;94822.34;10297083;28;96896;-62
2021/12/02 10:04:02;;;;;;;7.50;4.10;;;;;;;4.01;85.89;94821.25;10293815;28;97153;-62
2021/12/02 10:09:11;;;;;;;8.20;3.85;;;;;;;4.01;85.54;94818.69;10298717;28;96835;-62
2021/12/02 10:14:19;;;;;;;6.65;3.95;;;;;;;4.13;85.45;94814.13;10298279;28;96700;-62
2021/12/02 10:19:27;;;;;;;8.50;3.00;;;;;;;4.06;85.38;94800.97;10293998;28;97380;-63
2021/12/02 10:24:30;;;;;;;3.88;2.55;;;;;;;4.06;85.87;94800.97;10290203;28;96962;-63
2021/12/02 10:29:37;;;;;;;3.55;1.83;;;;;;;4.23;85.38;94801.16;10297249;28;97090;-62
2021/12/02 10:34:49;;;;;;;3.50;2.50;;;;;;;4.39;85.06;94794.41;10293222;28;96924;-62
2021/12/02 10:39:58;;;;;;;2.38;1.30;;;;;;;4.43;84.84;94779.41;10294682;28;96890;-62
2021/12/02 10:45:04;;;;;;;3.55;0.75;;;;;;;4.53;83.95;94769.00;10297242;28;97005;-62
2021/12/02 10:50:09;;;;;;;1.52;0.70;;;;;;;4.41;83.36;94763.22;10297027;28;96910;-62
2021/12/02 10:55:14;;;;;;;3.03;0.90;;;;;;;4.38;83.50;94763.50;10291852;28;96983;-62
2021/12/02 11:00:20;;;;;;;4.10;1.38;;;;;;;4.41;82.98;94757.25;10295410;28;96778;-63
2021/12/02 11:05:26;;;;;;;1.70;0.82;;;;;;;4.37;83.17;94754.16;10296394;28;96838;-62
2021/12/02 11:10:32;;;;;;;;;;;;;;;4.24;84.00;94758.84;10294334;28;96925;-62
2021/12/02 11:15:39;;;;;;;2.70;1.20;;;;;;;4.29;83.72;94751.47;10289647;28;97015;-62
2021/12/02 11:20:45;;;;;;;2.72;1.55;;;;;;;4.36;83.11;94752.50;10296649;28;96732;-62
2021/12/02 11:25:57;;;;;;;4.30;2.85;;;;;;;4.35;83.18;94748.28;10293272;28;97012;-62
2021/12/02 11:31:11;;;;;;;6.10;2.90;;;;;;;4.27;83.11;94743.06;10292310;28;96914;-62
2021/12/02 11:36:18;;;;;;;4.32;2.90;;;;;;;4.20;82.85;94741.03;10295303;28;97041;-62
2021/12/02 11:41:21;;;;;;;3.97;2.63;;;;;;;4.23;83.13;94721.84;10296100;28;96928;-62
2021/12/02 11:46:25;;;;;;;3.70;1.73;;;;;;;4.27;82.78;94732.72;10291640;28;97242;-63
2021/12/02 11:51:29;;;;;;;2.72;1.15;;;;;;;4.34;82.21;94723.41;10296184;28;97149;-62
2021/12/02 11:56:32;;;;;;;3.53;1.10;;;;;;;4.28;81.86;94729.16;10295879;28;97132;-62
2021/12/02 12:01:36;;;;;;;1.88;0.90;;;;;;;4.32;80.92;94725.34;10292762;28;98637;-62
2021/12/02 12:06:41;;;;;;;1.50;0.77;;;;;;;4.32;81.19;94718.38;10296478;28;97048;-62
2021/12/02 12:11:47;;;;;;;1.50;0.90;;;;;;;4.29;80.91;94704.94;10302301;28;96951;-62
2021/12/02 12:17:05;;;;;;;1.50;0.88;;;;;;;4.37;81.24;94699.84;10293604;28;98361;-62
2021/12/02 12:22:12;;;;;;;1.80;0.52;;;;;;;4.52;81.24;94700.94;10285714;28;97688;-62
2021/12/02 12:27:17;;;;;;;1.30;0.85;;;;;;;4.53;81.33;94683.66;10287176;28;97076;-62
2021/12/02 12:32:32;;;;;;;2.63;0.93;;;;;;;4.61;81.90;94673.41;10289250;28;96808;-62
2021/12/02 12:37:51;;;;;;;2.13;0.90;;;;;;;4.72;81.72;94680.09;10293038;28;96832;-62
2021/12/02 12:43:36;;;;;;;1.60;1.10;;;;;;;4.67;82.45;94687.50;10290036;28;97125;-62
2021/12/02 12:48:41;;;;;;;1.27;1.02;;;;;;;4.47;81.78;94708.34;10289423;28;96941;-62
2021/12/02 12:53:48;;;;;;;1.00;0.80;;;;;;;3.75;80.85;94734.06;10292743;28;97945;-62
2021/12/02 12:59:02;;;;;;;0.00;0.00;;;;;;;2.34;80.35;94757.09;10290861;28;96987;-62
2021/12/02 13:04:16;;;;;;;0.00;0.00;;;;;;;1.05;82.47;94763.66;10276564;28;96871;-62
2021/12/02 13:09:46;;;;;;;0.03;0.03;;;;;;;0.39;83.78;94752.66;10289400;28;96954;-62
2021/12/02 13:14:52;;;;;;;0.10;0.10;;;;;;;0.59;85.09;94740.75;10291313;28;97024;-62
2021/12/02 13:20:00;;;;;;;0.28;0.28;;;;;;;0.79;85.36;94717.75;10289722;28;96979;-62
2021/12/02 13:25:24;;;;;;;0.95;0.40;;;;;;;1.07;84.54;94700.91;10278774;28;97837;-62
2021/12/02 13:30:27;;;;;;;1.75;0.25;;;;;;;1.21;83.77;94699.75;10291579;28;97131;-62
2021/12/02 13:35:32;;;;;;;0.20;0.20;;;;;;;1.25;83.29;94713.16;10286065;28;97110;-62
2021/12/02 13:40:35;;;;;;;0.23;0.10;;;;;;;1.29;82.15;94689.59;10290220;28;97085;-62
2021/12/02 13:45:39;;;;;;;0.10;0.10;;;;;;;1.16;80.55;94756.72;10291692;28;96801;-62
2021/12/02 13:50:47;;;;;;;1.13;0.50;;;;;;;1.04;79.16;94729.44;10290033;28;98038;-62
2021/12/02 13:55:53;;;;;;;3.00;0.50;;;;;;;0.90;79.32;94770.91;10278557;28;98757;-61
2021/12/02 14:00:59;;;;;;;1.08;0.30;;;;;;;1.03;79.75;94801.56;10278408;28;96871;-62
2021/12/02 14:06:04;;;;;;;0.15;0.15;;;;;;;1.08;79.16;94768.56;10276203;28;97022;-61
2021/12/02 14:11:09;;;;;;;0.10;0.10;;;;;;;1.09;72.03;94795.94;10275658;28;98519;-61
2021/12/02 14:16:11;;;;;;;0.40;0.30;;;;;;;1.09;78.24;94783.88;10286248;28;98860;-61
2021/12/02 14:21:17;;;;;;;0.20;0.20;;;;;;;1.14;79.13;94810.03;10287254;28;96755;-62
2021/12/02 14:26:24;;;;;;;0.52;0.30;;;;;;;1.10;75.33;94834.34;10288736;28;96800;-62
2021/12/02 14:31:30;;;;;;;0.65;0.30;;;;;;;1.08;77.96;94815.66;10288667;28;96944;-61
2021/12/02 14:36:43;;;;;;;0.30;0.30;;;;;;;1.05;78.87;94821.06;10285907;28;98414;-62
2021/12/02 14:41:47;;;;;;;0.40;0.30;;;;;;;1.06;78.71;94832.19;10288606;28;97097;-62
2021/12/02 14:46:51;;;;;;;1.10;0.38;;;;;;;1.05;79.00;94838.25;10291069;28;96914;-61
2021/12/02 14:51:59;;;;;;;0.30;0.30;;;;;;;1.08;78.91;94845.72;10302966;28;96875;-61
2021/12/02 14:57:03;;;;;;;1.17;0.68;;;;;;;1.05;79.26;94869.91;10288308;28;96856;-62
2021/12/02 15:02:08;;;;;;;0.98;0.70;;;;;;;1.07;78.61;94869.78;10287901;28;97101;-62
2021/12/02 15:07:15;;;;;;;0.85;0.38;;;;;;;1.06;75.74;94876.72;10287831;28;96931;-62
2021/12/02 15:12:21;;;;;;;0.50;0.30;;;;;;;0.97;77.10;94911.69;10286914;28;96834;-62
2021/12/02 15:17:36;;;;;;;0.25;0.20;;;;;;;0.93;77.37;94924.91;10287340;28;96798;-62
2021/12/02 15:22:41;;;;;;;0.57;0.52;;;;;;;0.94;78.21;94936.84;10287240;28;96976;-62
2021/12/02 15:28:15;;;;;;;0.63;0.45;;;;;;;0.83;77.68;94944.56;10288443;28;97398;-61
2021/12/02 15:33:22;;;;;;;0.45;0.30;;;;;;;0.69;74.26;94955.91;10286338;28;96747;-61
2021/12/02 15:38:27;;;;;;;2.15;0.70;;;;;;;0.53;74.23;94967.41;10287126;28;98899;-62
2021/12/02 15:43:35;;;;;;;0.65;0.50;;;;;;;0.55;71.96;95000.66;10284994;28;97141;-61
2021/12/02 15:48:40;;;;;;;0.60;0.40;;;;;;;0.49;71.87;95019.13;10282967;28;97911;-62
2021/12/02 15:53:45;;;;;;;2.63;0.60;;;;;;;0.32;68.86;95026.34;10294740;28;97716;-62
2021/12/02 15:58:51;;;;;;;1.65;0.70;;;;;;;0.29;70.01;95049.72;10292940;28;102890;-62
2021/12/02 16:03:58;;;;;;;1.75;0.63;;;;;;;0.28;71.47;95068.63;10293724;28;97287;-62
2021/12/02 16:09:11;;;;;;;2.28;0.80;;;;;;;0.22;68.79;95072.47;10292456;28;96734;-62
2021/12/02 16:14:15;;;;;;;1.92;0.93;;;;;;;0.21;69.72;95091.38;10292726;28;97249;-62
2021/12/02 16:19:18;;;;;;;2.42;0.80;;;;;;;0.14;66.23;95107.34;10293505;28;96852;-62
2021/12/02 16:24:22;;;;;;;1.63;0.77;;;;;;;0.21;65.18;95108.53;10293505;28;96931;-62
2021/12/02 16:29:25;;;;;;;0.82;0.82;;;;;;;0.21;67.41;95111.09;10292252;28;97025;-62
2021/12/02 16:34:28;;;;;;;3.90;0.88;;;;;;;0.15;63.54;95139.78;10290546;28;96877;-62
2021/12/02 16:40:12;;;;;;;2.67;0.80;;;;;;;0.18;66.22;95142.94;10291467;28;97328;-62
2021/12/02 16:45:18;;;;;;;2.75;0.70;;;;;;;0.19;66.46;95166.91;10290022;28;97105;-62
2021/12/02 16:50:22;;;;;;;3.72;0.90;;;;;;;0.20;67.83;95179.63;10291486;28;98751;-62
2021/12/02 16:55:28;;;;;;;0.87;0.70;;;;;;;0.27;65.33;95180.00;10290122;28;96946;-62
2021/12/02 17:00:35;;;;;;;3.03;1.10;;;;;;;0.18;67.08;95170.41;10288949;28;96958;-62
2021/12/02 17:05:58;;;;;;;2.42;1.10;;;;;;;0.19;67.34;95166.91;10305785;28;96846;-62
2021/12/02 17:11:03;;;;;;;2.67;0.90;;;;;;;0.20;67.86;95181.38;10292663;28;96939;-62
2021/12/02 17:16:06;;;;;;;3.40;1.20;;;;;;;0.19;67.49;95187.44;10291252;28;98878;-62
2021/12/02 17:21:09;;;;;;;2.38;1.05;;;;;;;0.18;69.04;95196.88;10290738;28;96888;-62
2021/12/02 17:26:14;;;;;;;2.75;0.80;;;;;;;0.24;69.27;95201.59;10289452;28;96935;-62
2021/12/02 17:31:19;;;;;;;2.85;1.08;;;;;;;0.28;69.58;95215.03;10289659;28;97292;-62
2021/12/02 17:36:23;;;;;;;1.92;1.10;;;;;;;0.30;69.50;95220.88;10291218;28;97228;-62
2021/12/02 17:41:27;;;;;;;2.30;1.30;;;;;;;0.27;70.76;95213.38;10290348;28;96964;-62
2021/12/02 17:46:30;;;;;;;3.38;2.15;;;;;;;0.24;70.57;95236.75;10289281;28;96983;-62
2021/12/02 17:51:38;;;;;;;1.58;1.08;;;;;;;0.25;70.67;95246.06;10287640;28;96795;-62
2021/12/02 17:56:44;;;;;;;6.82;2.97;;;;;;;0.21;70.52;95267.78;10289827;28;97076;-62
2021/12/02 18:01:49;;;;;;;4.97;2.00;;;;;;;0.08;70.78;95277.25;10288213;28;100073;-62
2021/12/02 18:06:52;;;;;;;1.98;0.77;;;;;;;-0.23;71.60;95298.19;10288452;28;99924;-62
2021/12/02 18:11:58;;;;;;;1.95;0.77;;;;;;;-0.68;76.64;95320.06;10293377;28;96776;-62
2021/12/02 18:17:00;;;;;;;2.07;1.00;;;;;;;-0.85;77.05;95313.50;10295132;28;97444;-62
2021/12/02 18:22:04;;;;;;;1.98;1.30;;;;;;;-0.88;76.88;95306.81;10287549;28;96871;-62
2021/12/02 18:27:09;;;;;;;2.00;1.27;;;;;;;-0.92;77.99;95313.88;10286044;28;97237;-62
2021/12/02 18:32:13;;;;;;;3.33;1.63;;;;;;;-0.93;77.68;95316.53;10287711;28;97406;-61
2021/12/02 18:37:17;;;;;;;4.72;2.13;;;;;;;-1.11;79.00;95324.50;10288613;28;97181;-62
2021/12/02 18:42:23;;;;;;;3.47;1.63;;;;;;;-1.15;79.25;95319.72;10281595;28;97309;-61
2021/12/02 18:47:27;;;;;;;2.50;1.63;;;;;;;-1.17;80.07;95334.34;10286656;28;97782;-62
2021/12/02 18:52:30;;;;;;;4.20;2.13;;;;;;;-1.17;80.30;95345.44;10288873;28;97120;-62
2021/12/02 18:57:35;;;;;;;2.38;1.35;;;;;;;-1.24;80.78;95349.28;10281641;28;98455;-62
2021/12/02 19:02:40;;;;;;;3.38;1.70;;;;;;;-1.24;81.38;95358.72;10287081;28;97907;-62
2021/12/02 19:29:36;;;;;;;3.95;2.00;;;;;;;-1.19;82.18;95383.13;10197191;28;97557;-63
2021/12/02 19:34:39;;;;;;;2.90;2.22;;;;;;;-1.19;81.87;95390.81;10203702;28;97780;-62
2021/12/02 19:39:43;;;;;;;4.30;2.55;;;;;;;-1.21;82.72;95394.41;10203220;28;98426;-62
2021/12/02 19:44:47;;;;;;;3.47;1.90;;;;;;;-1.34;82.55;95389.25;10201927;28;98118;-62
2021/12/02 19:49:50;;;;;;;4.05;2.10;;;;;;;-1.33;82.77;95399.38;10282809;28;96909;-63
2021/12/02 19:54:53;;;;;;;3.38;1.60;;;;;;;-1.29;82.54;95407.72;10283525;28;98730;-63
2021/12/02 19:59:57;;;;;;;2.22;1.60;;;;;;;-1.29;82.28;95411.09;10281502;28;98990;-63
2021/12/02 20:05:00;;;;;;;3.83;2.20;;;;;;;-1.31;82.71;95420.63;10284973;28;98548;-62
2021/12/02 20:10:04;;;;;;;3.22;1.88;;;;;;;-1.38;82.57;95423.63;10288747;28;97314;-62
2021/12/02 20:15:16;;;;;;;4.70;2.53;;;;;;;-1.50;83.09;95426.06;10284214;28;96987;-62
2021/12/02 20:20:23;;;;;;;5.07;3.00;;;;;;;-1.49;82.43;95443.06;10292307;28;96705;-63
2021/12/02 20:25:26;;;;;;;8.18;4.78;;;;;;;-1.46;81.94;95444.63;10287365;28;97158;-62
2021/12/02 20:30:32;;;;;;;6.85;2.78;;;;;;;-1.57;81.76;95455.53;10286537;28;98164;-62
2021/12/02 20:35:35;;;;;;;3.30;1.83;;;;;;;-1.62;81.68;95462.66;10285331;28;97202;-62
2021/12/02 20:40:38;;;;;;;3.63;1.60;;;;;;;-1.61;78.52;95469.41;10288183;28;97143;-62
2021/12/02 20:45:42;;;;;;;2.53;1.33;;;;;;;-1.59;78.52;95480.38;10287548;28;96765;-62
2021/12/02 20:50:47;;;;;;;2.97;1.00;;;;;;;-1.62;76.16;95475.47;10283230;28;96821;-62
2021/12/02 20:55:55;;;;;;;3.03;1.00;;;;;;;-1.68;73.19;95468.94;10287871;28;96845;-62
2021/12/02 21:01:00;;;;;;;2.00;1.00;;;;;;;-1.73;73.45;95475.28;10286383;28;96986;-62
2021/12/02 21:06:04;;;;;;;0.97;0.80;;;;;;;-1.82;73.92;95475.84;10291172;28;97433;-61
2021/12/02 21:11:09;;;;;;;1.38;0.90;;;;;;;-1.93;74.88;95484.16;10291215;28;96885;-62
2021/12/02 21:16:16;;;;;;;1.80;0.80;;;;;;;-1.92;73.44;95491.72;10290850;28;97040;-62
2021/12/02 21:21:21;;;;;;;2.40;1.20;;;;;;;-1.98;73.58;95497.22;10287214;28;96875;-62
2021/12/02 21:26:24;;;;;;;2.77;0.73;;;;;;;-2.01;73.74;95497.38;10286591;28;97224;-62
2021/12/02 21:31:29;;;;;;;2.33;0.85;;;;;;;-2.13;73.73;95498.91;10289409;28;98157;-62
2021/12/02 21:36:40;;;;;;;2.00;1.08;;;;;;;-2.22;74.12;95507.13;10288689;28;97113;-62
2021/12/02 21:41:43;;;;;;;2.83;0.90;;;;;;;-2.32;73.92;95504.25;10282169;28;97383;-62
2021/12/02 21:46:48;;;;;;;3.55;1.80;;;;;;;-2.38;74.07;95514.84;10284850;28;96879;-62
2021/12/02 21:51:53;;;;;;;5.50;1.25;;;;;;;-2.38;74.27;95509.75;10289710;28;96947;-62
2021/12/02 21:56:57;;;;;;;4.50;1.30;;;;;;;-2.41;73.94;95515.03;10287522;28;96808;-62
2021/12/02 22:02:02;;;;;;;4.00;1.70;;;;;;;-2.45;73.58;95523.78;10284988;28;98484;-62
2021/12/02 22:07:06;;;;;;;5.60;2.10;;;;;;;-2.51;73.31;95524.13;10286349;28;96949;-62
2021/12/02 22:12:10;;;;;;;3.15;1.88;;;;;;;-2.58;73.40;95527.94;10283978;28;96859;-62
2021/12/02 22:17:17;;;;;;;6.22;2.55;;;;;;;-2.75;74.95;95532.22;10283585;28;97103;-62
2021/12/02 22:22:20;;;;;;;3.37;1.83;;;;;;;-2.74;74.36;95543.31;10285166;28;96929;-62
2021/12/02 22:27:24;;;;;;;3.63;1.63;;;;;;;-2.72;73.79;95539.75;10283857;28;96831;-62
2021/12/02 22:32:28;;;;;;;4.25;1.65;;;;;;;-2.68;73.06;95548.91;10281949;28;98102;-62
2021/12/02 22:37:32;;;;;;;3.47;1.67;;;;;;;-2.72;74.10;95549.97;10282194;28;98431;-62
2021/12/02 22:42:35;;;;;;;1.58;1.05;;;;;;;-2.66;72.76;95562.41;10280306;28;96937;-62
2021/12/02 22:47:39;;;;;;;1.88;1.10;;;;;;;-2.50;73.02;95556.47;10279815;28;96762;-62
2021/12/02 22:52:43;;;;;;;2.03;1.08;;;;;;;-2.37;71.65;95559.97;10281557;28;96991;-62
2021/12/02 22:57:47;;;;;;;2.38;1.05;;;;;;;-2.24;71.20;95555.00;10293356;28;97357;-62
2021/12/02 23:02:51;;;;;;;1.67;0.93;;;;;;;-2.12;69.98;95561.16;10280730;28;98046;-62
2021/12/02 23:07:55;;;;;;;1.95;0.70;;;;;;;-1.98;69.59;95558.63;10283961;28;97288;-61
2021/12/02 23:12:58;;;;;;;3.08;0.90;;;;;;;-1.92;68.73;95568.50;10286176;28;97535;-61
2021/12/02 23:18:02;;;;;;;3.45;1.02;;;;;;;-1.79;67.96;95562.72;10281575;28;96801;-61
2021/12/02 23:23:06;;;;;;;2.88;0.95;;;;;;;-1.71;67.44;95569.03;10281567;28;96884;-62
2021/12/02 23:28:12;;;;;;;2.65;1.05;;;;;;;-1.65;66.05;95568.66;10285872;28;97103;-61
2021/12/02 23:33:19;;;;;;;1.40;0.90;;;;;;;-1.51;66.67;95556.78;10285521;28;98699;-61
2021/12/02 23:38:24;;;;;;;1.70;0.93;;;;;;;-1.47;66.92;95571.88;10281760;28;96809;-61
2021/12/02 23:43:27;;;;;;;2.38;0.80;;;;;;;-1.47;66.94;95574.41;10282336;28;97576;-61
2021/12/02 23:48:33;;;;;;;3.00;0.80;;;;;;;-1.42;66.46;95584.41;10282178;28;96820;-61
2021/12/02 23:53:36;;;;;;;2.55;0.90;;;;;;;-1.34;65.90;95594.22;10280236;28;97323;-61
2021/12/02 23:58:39;;;;;;;2.78;0.85;;;;;;;-1.25;65.39;95590.28;10283712;28;96863;-61
